Time;durP1;ratioP1;P1;durP2;ratioP2;P2;SDS_P1;SDS_P2;PMS_P1;PMS_P2;Temp;Humidity;BMP_temperature;BMP_pressure;BME280_temperature;BME280_humidity;BME280_pressure;Samples;Min_cycle;Max_cycle;Signal;HPM_P1;HPM_P2
2023/03/05 00:00:14;;;;;;;6.13;1.63;;;3.80;99.90;;;;;;4910480;29;38340;-77
2023/03/05 00:02:41;;;;;;;10.33;2.80;;;3.60;99.90;;;;;;4895743;29;38920;-79
2023/03/05 00:05:08;;;;;;;9.40;1.97;;;3.60;99.90;;;;;;4891469;29;35720;-78
2023/03/05 00:07:34;;;;;;;9.17;2.03;;;3.40;99.90;;;;;;4889887;29;39324;-78
2023/03/05 00:10:04;;;;;;;8.20;2.67;;;3.40;99.90;;;;;;4885284;29;36914;-78
2023/03/05 00:12:30;;;;;;;12.67;3.47;;;3.20;99.90;;;;;;4884057;29;47943;-77
2023/03/05 00:14:57;;;;;;;14.33;3.83;;;3.20;99.90;;;;;;4891687;29;36209;-78
2023/03/05 00:17:23;;;;;;;10.03;3.30;;;3.10;99.90;;;;;;4902438;29;39583;-77
2023/03/05 00:19:49;;;;;;;10.17;3.00;;;3.10;99.90;;;;;;4897524;29;38541;-77
2023/03/05 00:22:15;;;;;;;8.43;2.33;;;3.00;99.90;;;;;;4880228;29;37080;-77
2023/03/05 00:24:41;;;;;;;6.70;2.33;;;3.10;99.90;;;;;;4882947;29;37936;-77
2023/03/05 00:27:07;;;;;;;10.77;2.83;;;3.00;99.90;;;;;;4893768;29;37391;-78
2023/03/05 00:29:33;;;;;;;12.23;2.27;;;3.10;99.90;;;;;;4898895;29;39100;-77
2023/03/05 00:31:59;;;;;;;15.03;2.67;;;3.20;99.90;;;;;;4898961;29;36899;-78
2023/03/05 00:34:27;;;;;;;9.77;1.60;;;3.40;99.90;;;;;;4903340;29;37082;-78
2023/03/05 00:36:53;;;;;;;4.47;1.20;;;3.60;99.90;;;;;;4907616;29;39654;-78
2023/03/05 00:39:20;;;;;;;9.13;1.70;;;3.80;99.90;;;;;;4906048;29;39510;-78
2023/03/05 00:41:47;;;;;;;8.90;1.57;;;3.90;99.90;;;;;;4882852;29;37307;-78
2023/03/05 00:44:13;;;;;;;7.20;1.97;;;3.90;99.90;;;;;;4905067;29;37009;-77
2023/03/05 00:46:39;;;;;;;11.30;1.80;;;3.90;99.90;;;;;;4904200;29;38194;-79
2023/03/05 00:49:06;;;;;;;11.13;1.87;;;3.80;99.90;;;;;;4901516;29;39343;-78
2023/03/05 00:51:33;;;;;;;7.40;1.80;;;3.70;99.90;;;;;;4883733;29;36763;-77
2023/03/05 00:53:59;;;;;;;10.17;2.00;;;3.70;99.90;;;;;;4888453;29;37737;-78
2023/03/05 00:56:25;;;;;;;10.77;1.80;;;3.60;99.90;;;;;;4899788;29;37624;-78
2023/03/05 00:58:52;;;;;;;8.43;1.73;;;3.60;99.90;;;;;;4889943;29;37664;-77
2023/03/05 01:01:18;;;;;;;15.37;2.47;;;3.70;99.90;;;;;;4902876;29;37911;-78
2023/03/05 01:03:44;;;;;;;13.97;2.40;;;3.70;99.90;;;;;;4912107;29;37241;-77
2023/03/05 01:06:12;;;;;;;10.37;2.30;;;3.70;99.90;;;;;;4892944;29;38054;-78
2023/03/05 01:08:38;;;;;;;11.27;1.83;;;3.70;99.90;;;;;;4887630;29;37713;-77
2023/03/05 01:11:05;;;;;;;5.73;1.77;;;3.60;99.90;;;;;;4897387;29;37153;-78
2023/03/05 01:13:32;;;;;;;9.50;1.93;;;3.70;99.90;;;;;;4894698;29;36392;-77
2023/03/05 01:15:59;;;;;;;7.00;1.60;;;3.70;99.90;;;;;;4889530;29;37907;-77
2023/03/05 01:18:25;;;;;;;8.50;1.93;;;3.70;99.90;;;;;;4884535;29;37392;-78
2023/03/05 01:20:51;;;;;;;5.93;1.50;;;3.70;99.90;;;;;;4889278;29;37594;-79
2023/03/05 01:23:17;;;;;;;9.50;1.90;;;3.80;99.90;;;;;;4908878;29;37384;-79
2023/03/05 01:25:44;;;;;;;10.60;1.77;;;3.80;99.90;;;;;;4892249;29;37764;-79
2023/03/05 01:28:10;;;;;;;8.53;1.80;;;3.80;99.90;;;;;;4899281;29;37480;-79
2023/03/05 01:30:37;;;;;;;13.00;2.30;;;3.80;99.90;;;;;;4885144;29;36691;-79
2023/03/05 01:33:03;;;;;;;9.97;2.10;;;3.90;99.90;;;;;;4906759;29;37465;-79
2023/03/05 01:35:30;;;;;;;9.63;2.60;;;3.90;99.90;;;;;;4909601;29;39002;-79
2023/03/05 01:37:56;;;;;;;8.17;2.63;;;3.90;99.90;;;;;;4906908;29;38223;-79
2023/03/05 01:40:28;;;;;;;10.60;2.30;;;3.90;99.90;;;;;;4911911;29;38527;-79
2023/03/05 01:43:25;;;;;;;11.48;2.13;;;3.90;99.90;;;;;;4891821;29;36213;-79
2023/03/05 01:46:24;;;;;;;10.50;2.40;;;3.90;99.90;;;;;;4890286;29;47340;-80
2023/03/05 01:48:53;;;;;;;11.13;2.40;;;4.00;99.90;;;;;;4890727;29;46862;-79
2023/03/05 01:51:24;;;;;;;9.90;2.70;;;4.00;99.90;;;;;;4914110;29;36929;-76
2023/03/05 01:53:51;;;;;;;8.93;2.43;;;4.00;99.90;;;;;;4900776;29;37473;-79
2023/03/05 01:56:17;;;;;;;9.73;2.33;;;4.00;99.90;;;;;;4893458;29;39729;-77
2023/03/05 01:58:44;;;;;;;8.13;2.47;;;4.10;99.90;;;;;;4897414;29;39076;-78
2023/03/05 02:03:47;;;;;;;11.53;2.73;;;4.10;99.90;;;;;;4543438;23;20223;-83
2023/03/05 02:06:16;;;;;;;10.93;2.67;;;4.20;99.90;;;;;;4936711;28;39014;-82
2023/03/05 02:08:42;;;;;;;11.53;2.70;;;4.20;99.90;;;;;;4920583;28;38287;-83
2023/03/05 02:11:09;;;;;;;11.73;3.03;;;4.20;99.90;;;;;;4934625;28;39338;-82
2023/03/05 02:13:39;;;;;;;11.40;2.90;;;4.20;99.90;;;;;;4914769;29;37817;-81
2023/03/05 02:16:08;;;;;;;7.93;2.50;;;4.30;99.90;;;;;;4915344;29;38939;-81
2023/03/05 02:18:40;;;;;;;10.90;2.40;;;4.20;99.90;;;;;;4923410;29;38669;-81
2023/03/05 02:21:27;;;;;;;12.68;3.15;;;4.10;99.90;;;;;;4914486;28;37214;-82
2023/03/05 02:23:55;;;;;;;9.40;2.57;;;4.10;99.90;;;;;;4919005;28;36975;-83
2023/03/05 02:26:21;;;;;;;8.17;2.63;;;3.90;99.90;;;;;;4920668;29;38743;-82
2023/03/05 02:28:55;;;;;;;10.13;3.00;;;3.90;99.90;;;;;;4916531;28;39180;-82
2023/03/05 02:31:23;;;;;;;8.70;3.00;;;3.70;99.90;;;;;;4903600;29;38434;-82
2023/03/05 02:33:50;;;;;;;16.40;3.17;;;3.70;99.90;;;;;;4902120;29;36750;-82
2023/03/05 02:36:17;;;;;;;7.47;2.67;;;3.60;99.90;;;;;;4901903;29;37940;-82
2023/03/05 02:38:44;;;;;;;13.73;2.97;;;3.60;99.90;;;;;;4903931;29;38460;-82
2023/03/05 02:41:11;;;;;;;11.57;2.77;;;3.60;99.90;;;;;;4899981;29;38923;-82
2023/03/05 02:43:45;;;;;;;11.30;2.80;;;3.60;99.90;;;;;;4901094;29;35635;-81
2023/03/05 02:46:11;;;;;;;6.90;2.70;;;3.70;99.90;;;;;;4903417;29;37595;-81
2023/03/05 02:48:37;;;;;;;11.67;2.70;;;3.70;99.90;;;;;;4907269;29;36526;-82
2023/03/05 02:51:05;;;;;;;10.83;2.87;;;3.80;99.90;;;;;;4923784;29;36877;-82
2023/03/05 02:53:31;;;;;;;10.70;3.27;;;3.80;99.90;;;;;;4906929;29;36211;-82
2023/03/05 02:55:57;;;;;;;7.17;2.73;;;3.80;99.90;;;;;;4923158;29;38652;-81
2023/03/05 02:58:30;;;;;;;9.13;2.80;;;3.90;99.90;;;;;;4900664;29;36470;-82
2023/03/05 03:00:56;;;;;;;14.13;3.30;;;4.00;99.90;;;;;;4922079;29;37598;-82
2023/03/05 03:03:22;;;;;;;10.10;2.93;;;4.10;99.90;;;;;;4931780;29;37180;-81
2023/03/05 03:05:50;;;;;;;14.33;3.40;;;4.20;99.90;;;;;;4925480;29;38277;-81
2023/03/05 03:08:16;;;;;;;7.80;2.27;;;4.20;99.90;;;;;;4943204;28;37723;-80
2023/03/05 03:10:42;;;;;;;11.10;3.00;;;4.20;99.90;;;;;;4918673;29;40124;-79
2023/03/05 03:13:08;;;;;;;8.10;2.00;;;4.30;99.90;;;;;;4920091;28;37353;-80
2023/03/05 03:15:34;;;;;;;11.67;2.60;;;4.30;99.90;;;;;;4913041;29;37761;-79
2023/03/05 03:18:00;;;;;;;5.63;2.13;;;4.30;99.90;;;;;;4918652;29;38599;-80
2023/03/05 03:20:26;;;;;;;6.77;2.27;;;4.30;99.90;;;;;;4932150;28;48460;-80
2023/03/05 03:22:52;;;;;;;7.33;2.03;;;4.30;99.90;;;;;;4924899;29;37338;-80
2023/03/05 03:25:21;;;;;;;10.07;2.80;;;4.30;99.90;;;;;;4939382;28;38836;-80
2023/03/05 03:27:48;;;;;;;4.07;2.27;;;4.30;99.90;;;;;;4922862;29;37134;-80
2023/03/05 03:30:15;;;;;;;4.53;1.70;;;4.20;99.90;;;;;;4916807;28;36373;-80
2023/03/05 03:32:41;;;;;;;4.20;2.00;;;4.20;99.90;;;;;;4919739;29;36024;-79
2023/03/05 03:35:09;;;;;;;4.53;1.93;;;4.20;99.90;;;;;;4941080;28;39029;-79
2023/03/05 03:37:35;;;;;;;4.77;1.30;;;4.20;99.90;;;;;;4917820;28;36962;-81
2023/03/05 03:40:04;;;;;;;9.03;1.70;;;4.10;99.90;;;;;;4936799;28;38267;-81
2023/03/05 03:42:30;;;;;;;7.87;1.60;;;4.10;99.90;;;;;;4916444;29;47697;-79
2023/03/05 03:44:56;;;;;;;7.00;2.23;;;4.00;99.90;;;;;;4915169;28;38774;-80
2023/03/05 03:47:22;;;;;;;7.73;2.00;;;3.90;99.90;;;;;;4929152;28;38295;-80
2023/03/05 03:49:53;;;;;;;4.20;1.47;;;3.90;99.90;;;;;;4917667;29;38167;-80
2023/03/05 03:52:19;;;;;;;4.33;1.40;;;3.90;99.90;;;;;;4920010;28;36251;-79
2023/03/05 03:54:45;;;;;;;4.23;2.07;;;4.00;99.90;;;;;;4913839;29;39501;-79
2023/03/05 03:57:11;;;;;;;3.40;1.73;;;4.00;99.90;;;;;;4912737;28;37666;-81
2023/03/05 03:59:37;;;;;;;3.57;2.17;;;4.00;99.90;;;;;;4909060;29;37368;-79
2023/03/05 04:02:03;;;;;;;4.77;2.27;;;3.90;99.90;;;;;;4916519;29;36278;-78
2023/03/05 04:04:30;;;;;;;8.30;3.40;;;4.00;99.90;;;;;;4910159;29;37608;-79
2023/03/05 04:06:56;;;;;;;6.27;2.33;;;3.90;99.90;;;;;;4911535;28;37291;-80
2023/03/05 04:09:22;;;;;;;6.77;2.70;;;4.00;99.90;;;;;;4908754;28;39342;-79
2023/03/05 04:11:48;;;;;;;3.93;2.57;;;4.10;99.90;;;;;;4906574;28;39345;-80
2023/03/05 04:14:15;;;;;;;10.07;2.40;;;4.10;99.90;;;;;;4912350;28;37819;-78
2023/03/05 04:16:41;;;;;;;4.97;2.47;;;4.20;99.90;;;;;;4928372;28;38184;-80
2023/03/05 04:19:07;;;;;;;4.57;1.13;;;4.30;99.90;;;;;;4914929;28;37023;-80
2023/03/05 04:21:33;;;;;;;2.33;0.50;;;4.20;99.90;;;;;;4916268;28;35994;-79
2023/03/05 04:23:59;;;;;;;1.27;0.37;;;4.00;99.90;;;;;;4918617;28;37806;-80
2023/03/05 04:26:25;;;;;;;3.17;0.40;;;3.90;99.90;;;;;;4917277;29;37506;-80
2023/03/05 04:28:51;;;;;;;2.60;0.47;;;3.90;99.90;;;;;;4919544;29;37170;-79
2023/03/05 04:31:19;;;;;;;6.07;0.53;;;3.90;99.90;;;;;;4934950;28;37569;-79
2023/03/05 04:33:45;;;;;;;6.60;0.80;;;3.90;99.90;;;;;;4931510;28;38660;-79
2023/03/05 04:36:11;;;;;;;3.60;0.40;;;3.90;99.90;;;;;;4915587;29;37568;-79
2023/03/05 04:38:37;;;;;;;4.03;0.60;;;3.90;99.90;;;;;;4916394;29;37977;-80
2023/03/05 04:41:03;;;;;;;1.67;0.47;;;3.80;99.90;;;;;;4915519;29;36084;-81
2023/03/05 04:43:30;;;;;;;2.07;0.80;;;3.80;99.90;;;;;;4915054;29;37869;-79
2023/03/05 04:45:57;;;;;;;4.33;0.73;;;3.70;99.90;;;;;;4933945;28;39062;-79
2023/03/05 04:48:23;;;;;;;2.80;0.80;;;3.80;99.90;;;;;;4915494;29;37613;-79
2023/03/05 04:50:49;;;;;;;4.93;0.90;;;3.80;99.90;;;;;;4925202;29;36181;-79
2023/03/05 04:53:15;;;;;;;7.33;1.23;;;3.80;99.90;;;;;;4920407;29;37655;-79
2023/03/05 04:55:42;;;;;;;2.27;0.87;;;3.80;99.90;;;;;;4930806;28;38482;-79
2023/03/05 04:58:09;;;;;;;6.10;0.80;;;3.90;99.90;;;;;;4917657;29;38475;-79
2023/03/05 05:00:35;;;;;;;4.63;0.90;;;4.00;99.90;;;;;;4909374;28;36179;-79
2023/03/05 05:03:01;;;;;;;3.83;0.80;;;4.10;99.90;;;;;;4912889;29;37599;-79
2023/03/05 05:05:28;;;;;;;6.63;0.73;;;4.10;99.90;;;;;;4913064;29;37439;-80
2023/03/05 05:07:55;;;;;;;6.50;1.00;;;4.10;99.90;;;;;;4907443;29;36870;-80
2023/03/05 05:10:22;;;;;;;3.97;0.60;;;4.10;99.90;;;;;;4907123;29;36994;-80
2023/03/05 05:12:48;;;;;;;3.57;0.70;;;3.90;99.90;;;;;;4902340;29;38694;-80
2023/03/05 05:15:14;;;;;;;3.17;0.43;;;3.80;99.90;;;;;;4909985;29;37122;-79
2023/03/05 05:17:40;;;;;;;5.43;0.80;;;3.80;99.90;;;;;;4907006;29;36846;-80
2023/03/05 05:20:09;;;;;;;4.53;0.70;;;3.70;99.90;;;;;;4908179;28;35775;-80
2023/03/05 05:22:35;;;;;;;4.83;0.73;;;3.60;99.90;;;;;;4908186;29;38986;-80
2023/03/05 05:25:02;;;;;;;5.40;0.70;;;3.50;99.90;;;;;;4910844;29;37461;-80
2023/03/05 05:27:28;;;;;;;1.73;0.70;;;3.40;99.90;;;;;;4910143;29;38357;-80
2023/03/05 05:29:55;;;;;;;2.27;1.03;;;3.40;99.90;;;;;;4914928;29;36116;-79
2023/03/05 05:32:23;;;;;;;4.33;1.00;;;3.30;99.90;;;;;;4905961;29;20053;-79
2023/03/05 05:34:54;;;;;;;4.40;1.10;;;3.30;99.90;;;;;;4910695;29;37532;-79
2023/03/05 05:37:20;;;;;;;7.90;1.00;;;3.20;99.90;;;;;;4908353;29;38499;-79
2023/03/05 05:39:49;;;;;;;3.37;0.80;;;3.20;99.90;;;;;;4912414;29;38016;-79
2023/03/05 05:42:20;;;;;;;4.80;1.10;;;3.10;99.90;;;;;;4910899;29;38627;-79
2023/03/05 05:44:46;;;;;;;4.57;1.30;;;3.00;99.90;;;;;;4913155;29;38927;-79
2023/03/05 05:47:14;;;;;;;6.17;1.37;;;3.00;99.90;;;;;;4914856;29;36941;-79
2023/03/05 05:49:40;;;;;;;3.80;1.70;;;3.00;99.90;;;;;;4903959;29;37451;-79
2023/03/05 05:52:06;;;;;;;5.83;2.00;;;3.00;99.90;;;;;;4913624;29;39516;-80
2023/03/05 05:54:33;;;;;;;7.23;2.80;;;3.10;99.90;;;;;;4917059;29;37212;-79
2023/03/05 05:56:59;;;;;;;6.83;2.67;;;3.10;99.90;;;;;;4910544;29;37529;-79
2023/03/05 05:59:25;;;;;;;8.80;3.30;;;3.10;99.90;;;;;;4910217;29;36537;-79
2023/03/05 06:01:52;;;;;;;10.63;2.73;;;3.10;99.90;;;;;;4915205;29;39106;-79
2023/03/05 06:04:18;;;;;;;4.53;2.93;;;3.20;99.90;;;;;;4930799;28;38435;-79
2023/03/05 06:06:44;;;;;;;10.23;2.97;;;3.30;99.90;;;;;;4911749;29;35458;-78
2023/03/05 06:09:10;;;;;;;7.63;2.63;;;3.30;99.90;;;;;;4914408;29;37713;-79
2023/03/05 06:11:37;;;;;;;10.17;2.33;;;3.30;99.90;;;;;;4913058;28;38914;-80
2023/03/05 06:14:03;;;;;;;8.80;2.53;;;3.40;99.90;;;;;;4915063;29;37410;-79
2023/03/05 06:16:29;;;;;;;6.50;1.77;;;3.50;99.90;;;;;;4913681;28;36633;-80
2023/03/05 06:18:56;;;;;;;4.80;1.20;;;3.50;99.90;;;;;;4910683;28;36083;-79
2023/03/05 06:21:23;;;;;;;4.17;1.43;;;3.60;99.90;;;;;;4915518;28;37931;-80
2023/03/05 06:23:50;;;;;;;6.00;1.07;;;3.70;99.90;;;;;;4914811;29;37726;-80
2023/03/05 06:26:21;;;;;;;5.17;1.13;;;3.80;99.90;;;;;;4926959;28;37940;-80
2023/03/05 06:28:48;;;;;;;7.97;0.90;;;3.80;99.90;;;;;;4910570;28;36965;-79
2023/03/05 06:31:16;;;;;;;12.97;1.10;;;3.90;99.90;;;;;;4905064;29;37502;-79
2023/03/05 06:33:43;;;;;;;8.70;1.37;;;3.90;99.90;;;;;;4927524;28;38355;-78
2023/03/05 06:36:12;;;;;;;9.20;1.00;;;3.90;99.90;;;;;;4926493;28;38259;-79
2023/03/05 06:38:39;;;;;;;6.33;0.90;;;4.00;99.90;;;;;;4914768;29;37352;-78
2023/03/05 06:41:10;;;;;;;10.00;1.37;;;4.10;99.90;;;;;;4914700;28;37788;-79
2023/03/05 06:43:38;;;;;;;9.30;0.97;;;4.10;99.90;;;;;;4911011;29;37060;-79
2023/03/05 06:46:07;;;;;;;13.00;1.60;;;4.10;99.90;;;;;;4926635;28;38241;-79
2023/03/05 06:48:34;;;;;;;6.13;0.93;;;4.20;99.90;;;;;;4909060;29;36331;-79
2023/03/05 06:51:00;;;;;;;4.17;1.00;;;4.30;99.90;;;;;;4931668;28;39607;-79
2023/03/05 06:53:26;;;;;;;5.47;1.20;;;4.30;99.90;;;;;;4915741;29;37278;-78
2023/03/05 06:55:53;;;;;;;8.80;1.40;;;4.30;99.90;;;;;;4915027;28;36742;-80
2023/03/05 06:58:19;;;;;;;5.90;1.30;;;4.30;99.90;;;;;;4928501;28;37725;-79
2023/03/05 07:00:46;;;;;;;5.60;1.50;;;4.30;99.90;;;;;;4911139;28;37533;-79
2023/03/05 07:03:12;;;;;;;3.43;0.83;;;4.30;99.90;;;;;;4910055;29;37642;-80
2023/03/05 07:05:41;;;;;;;7.53;1.10;;;4.40;99.90;;;;;;4909376;29;38217;-80
2023/03/05 07:08:08;;;;;;;6.30;1.83;;;4.40;99.90;;;;;;4914027;29;36549;-79
2023/03/05 07:10:42;;;;;;;5.13;0.80;;;4.40;99.90;;;;;;4913522;29;39683;-80
2023/03/05 07:13:08;;;;;;;6.63;0.90;;;4.40;99.90;;;;;;4911218;29;37415;-80
2023/03/05 07:15:38;;;;;;;3.63;0.57;;;4.50;99.90;;;;;;4912669;29;37927;-80
2023/03/05 07:18:05;;;;;;;5.03;0.57;;;4.60;99.90;;;;;;4909886;29;37277;-80
2023/03/05 07:20:34;;;;;;;2.50;0.90;;;4.60;99.90;;;;;;4911574;29;39074;-79
2023/03/05 07:23:00;;;;;;;6.70;0.87;;;4.70;99.90;;;;;;4911783;29;38103;-79
2023/03/05 07:25:26;;;;;;;4.17;0.97;;;4.70;99.90;;;;;;4917819;29;37113;-81
2023/03/05 07:27:52;;;;;;;6.27;1.70;;;4.80;99.90;;;;;;4917478;29;37645;-80
2023/03/05 07:30:19;;;;;;;2.53;1.60;;;4.80;99.90;;;;;;4908873;29;37574;-80
2023/03/05 07:32:45;;;;;;;9.10;1.90;;;4.90;99.90;;;;;;4912479;29;38733;-80
2023/03/05 07:35:11;;;;;;;2.73;1.60;;;5.00;99.90;;;;;;4912937;29;38265;-81
2023/03/05 07:37:37;;;;;;;8.73;1.70;;;5.00;99.90;;;;;;4912900;29;36086;-81
2023/03/05 07:40:04;;;;;;;4.37;1.60;;;5.00;99.90;;;;;;4905049;29;40688;-80
2023/03/05 07:42:30;;;;;;;3.33;0.80;;;5.00;99.90;;;;;;4902479;29;47248;-80
2023/03/05 07:44:56;;;;;;;4.67;0.40;;;4.90;99.90;;;;;;4907903;29;37165;-81
2023/03/05 07:47:22;;;;;;;3.83;0.33;;;5.00;99.90;;;;;;4908867;29;36341;-79
2023/03/05 07:49:49;;;;;;;4.30;0.50;;;5.00;99.90;;;;;;4906764;29;38704;-79
2023/03/05 07:52:15;;;;;;;2.80;0.40;;;5.00;99.90;;;;;;4907348;29;38576;-80
2023/03/05 07:54:41;;;;;;;3.60;0.57;;;5.10;99.90;;;;;;4913074;29;35924;-79
2023/03/05 07:57:11;;;;;;;3.33;0.53;;;5.10;99.90;;;;;;4904877;29;37838;-81
2023/03/05 07:59:37;;;;;;;2.00;0.40;;;5.20;99.90;;;;;;4911410;29;36897;-80
2023/03/05 08:02:04;;;;;;;4.13;0.70;;;5.30;99.90;;;;;;4912538;29;38457;-79
2023/03/05 08:04:30;;;;;;;4.80;0.60;;;5.50;99.90;;;;;;4920694;28;38026;-79
2023/03/05 08:06:58;;;;;;;6.63;0.90;;;5.60;99.90;;;;;;4915474;28;36396;-79
2023/03/05 08:09:24;;;;;;;8.30;0.67;;;5.70;99.90;;;;;;4905819;28;37351;-80
2023/03/05 08:11:50;;;;;;;2.23;0.60;;;5.80;99.90;;;;;;4908645;29;37146;-79
2023/03/05 08:14:16;;;;;;;3.90;0.70;;;5.70;99.90;;;;;;4926386;28;38835;-79
2023/03/05 08:16:42;;;;;;;4.00;0.70;;;5.70;99.90;;;;;;4924990;28;37255;-79
2023/03/05 08:19:09;;;;;;;3.90;0.80;;;5.50;99.90;;;;;;4921308;28;38721;-79
2023/03/05 08:21:36;;;;;;;2.93;0.60;;;5.40;99.90;;;;;;4908846;28;37005;-79
2023/03/05 08:24:05;;;;;;;2.83;0.60;;;5.30;99.90;;;;;;4904269;28;36980;-79
2023/03/05 08:26:34;;;;;;;3.53;0.63;;;5.20;99.90;;;;;;4914916;28;37936;-77
2023/03/05 08:29:01;;;;;;;3.00;0.67;;;5.30;99.90;;;;;;4907881;28;37942;-79
2023/03/05 08:31:29;;;;;;;4.40;0.77;;;5.40;99.90;;;;;;4909482;28;47128;-79
2023/03/05 08:33:56;;;;;;;4.57;0.87;;;5.30;99.90;;;;;;4911867;28;36948;-79
2023/03/05 08:36:23;;;;;;;2.17;0.47;;;5.20;99.90;;;;;;4908579;28;36282;-77
2023/03/05 08:38:50;;;;;;;1.93;0.53;;;5.10;99.90;;;;;;4910113;28;38902;-77
2023/03/05 08:41:17;;;;;;;3.33;0.50;;;5.10;99.90;;;;;;4912046;28;37458;-77
2023/03/05 08:43:43;;;;;;;3.00;0.50;;;5.10;99.90;;;;;;4909072;28;36781;-80
2023/03/05 08:46:11;;;;;;;3.10;0.50;;;5.20;99.90;;;;;;4907961;28;37410;-77
2023/03/05 08:48:38;;;;;;;3.00;0.80;;;5.20;99.90;;;;;;4924211;28;37567;-77
2023/03/05 08:51:09;;;;;;;5.77;0.57;;;5.30;99.90;;;;;;4907120;28;37883;-79
2023/03/05 08:53:35;;;;;;;5.50;0.50;;;5.40;99.90;;;;;;4913466;29;37096;-77
2023/03/05 08:56:02;;;;;;;2.43;0.60;;;5.50;99.90;;;;;;4913865;28;37618;-77
2023/03/05 08:58:28;;;;;;;3.10;0.50;;;5.60;99.90;;;;;;4923539;28;49124;-78
2023/03/05 09:00:55;;;;;;;3.40;0.57;;;5.80;99.90;;;;;;4908455;28;38050;-78
2023/03/05 09:03:21;;;;;;;2.77;0.60;;;5.90;99.90;;;;;;4926893;28;39147;-79
2023/03/05 09:05:48;;;;;;;7.50;0.70;;;6.10;99.90;;;;;;4905483;28;34902;-78
2023/03/05 09:08:17;;;;;;;3.50;0.50;;;6.20;99.90;;;;;;4907200;28;39078;-79
2023/03/05 09:10:45;;;;;;;6.57;0.53;;;6.20;99.90;;;;;;4914133;28;38362;-80
2023/03/05 09:13:11;;;;;;;1.33;0.40;;;6.30;99.90;;;;;;4925265;28;38230;-80
2023/03/05 09:15:38;;;;;;;2.73;0.43;;;6.40;99.90;;;;;;4918137;28;36250;-82
2023/03/05 09:18:05;;;;;;;7.00;0.90;;;6.40;99.90;;;;;;4924474;29;37453;-79
2023/03/05 09:20:32;;;;;;;3.53;1.17;;;6.40;99.90;;;;;;4923486;29;37611;-81
2023/03/05 09:22:58;;;;;;;3.23;0.73;;;6.40;99.90;;;;;;4922627;29;36918;-82
2023/03/05 09:25:24;;;;;;;2.97;0.43;;;6.40;99.90;;;;;;4921631;29;36235;-83
2023/03/05 09:27:50;;;;;;;2.77;0.83;;;6.40;99.90;;;;;;4933810;28;38547;-82
2023/03/05 09:30:17;;;;;;;2.73;0.73;;;6.50;99.90;;;;;;4923710;28;37243;-80
2023/03/05 09:32:43;;;;;;;2.70;0.80;;;6.60;99.90;;;;;;4927214;29;38583;-83
2023/03/05 09:35:09;;;;;;;3.33;0.73;;;6.70;99.90;;;;;;4935291;29;36353;-82
2023/03/05 09:38:03;;;;;;;4.67;0.60;;;6.80;99.90;;;;;;4935424;28;39098;-83
2023/03/05 09:40:50;;;;;;;6.30;0.90;;;7.00;99.90;;;;;;4849836;29;47269;-83
2023/03/05 09:43:37;;;;;;;6.80;0.97;;;6.90;99.90;;;;;;4846501;29;37263;-84
2023/03/05 09:46:10;;;;;;;3.60;0.90;;;6.50;99.90;;;;;;4937254;29;37376;-83
2023/03/05 09:48:50;;;;;;;4.73;0.60;;;6.30;99.90;;;;;;4932958;28;37305;-82
2023/03/05 09:51:26;;;;;;;3.40;0.53;;;6.10;99.90;;;;;;4932866;29;38732;-82
2023/03/05 09:54:05;;;;;;;0.83;0.40;;;5.80;99.90;;;;;;4942964;28;40852;-82
2023/03/05 09:56:38;;;;;;;1.87;0.50;;;5.70;99.90;;;;;;4932434;29;47439;-82
2023/03/05 09:59:50;;;;;;;3.87;0.70;;;5.80;99.90;;;;;;4926366;29;39357;-81
2023/03/05 10:02:27;;;;;;;0.87;0.33;;;6.00;99.90;;;;;;4872639;29;37259;-82
2023/03/05 10:04:56;;;;;;;1.40;0.40;;;6.20;99.90;;;;;;4887115;29;37856;-82
2023/03/05 10:07:48;;;;;;;1.30;0.40;;;6.50;99.90;;;;;;4919336;28;36211;-83
2023/03/05 10:10:41;;;;;;;0.77;0.33;;;6.70;99.90;;;;;;4947135;28;39099;-82
2023/03/05 10:13:26;;;;;;;0.90;0.40;;;6.70;99.90;;;;;;4937054;29;37486;-83
2023/03/05 10:16:19;;;;;;;2.47;0.40;;;6.80;99.90;;;;;;4936051;28;37011;-83
2023/03/05 10:21:35;;;;;;;2.87;1.33;;;7.20;99.90;;;;;;5444035;23;20028;-81
2023/03/05 10:24:44;;;;;;;3.40;0.50;;;7.50;99.90;;;;;;4949129;28;39618;-81
2023/03/05 10:30:44;;;;;;;2.67;0.60;;;8.10;99.90;;;;;;5265747;23;20033;-80
2023/03/05 10:33:25;;;;;;;2.78;0.77;;;8.20;99.90;;;;;;4882752;29;48784;-81
2023/03/05 10:36:23;;;;;;;0.90;0.50;;;8.30;99.90;;;;;;4896944;28;38881;-80
2023/03/05 10:39:29;;;;;;;3.47;0.50;;;8.10;99.90;;;;;;4887130;29;47690;-81
2023/03/05 10:42:17;;;;;;;4.80;0.90;;;8.10;99.90;;;;;;4880188;29;47665;-80
2023/03/05 10:44:59;;;;;;;1.97;0.50;;;8.00;99.90;;;;;;4884607;29;47584;-80
2023/03/05 10:47:39;;;;;;;1.23;0.23;;;7.70;99.90;;;;;;4892354;29;38622;-80
2023/03/05 10:50:28;;;;;;;1.03;0.30;;;7.60;99.90;;;;;;4908472;29;38451;-80
2023/03/05 10:53:26;;;;;;;3.03;0.67;;;7.50;99.90;;;;;;4895730;29;39901;-82
2023/03/05 10:55:55;;;;;;;2.23;0.60;;;7.30;99.90;;;;;;4907690;29;48524;-81
2023/03/05 10:58:23;;;;;;;2.73;0.80;;;7.30;99.90;;;;;;4890296;29;38253;-81
2023/03/05 11:01:11;;;;;;;1.00;0.40;;;7.20;99.90;;;;;;4909816;29;38873;-81
2023/03/05 11:03:58;;;;;;;5.50;0.47;;;7.50;99.90;;;;;;4901773;29;46919;-82
2023/03/05 11:06:27;;;;;;;4.57;0.70;;;7.80;99.90;;;;;;4884482;29;38141;-81
2023/03/05 11:08:53;;;;;;;3.90;0.50;;;8.00;99.90;;;;;;4906842;29;38094;-79
2023/03/05 11:11:22;;;;;;;1.20;0.33;;;8.30;99.90;;;;;;4887114;29;38017;-80
2023/03/05 11:14:02;;;;;;;2.67;0.40;;;8.50;99.90;;;;;;4900079;29;36695;-81
2023/03/05 11:16:44;;;;;;;2.80;0.50;;;8.70;99.90;;;;;;4890561;29;47100;-81
2023/03/05 11:19:20;;;;;;;1.40;0.37;;;8.60;99.90;;;;;;4900400;29;38775;-79
2023/03/05 11:22:05;;;;;;;2.37;0.40;;;8.60;99.90;;;;;;4898934;29;38853;-79
2023/03/05 11:24:32;;;;;;;3.03;0.60;;;8.50;99.90;;;;;;4901422;29;46895;-79
2023/03/05 11:26:59;;;;;;;1.73;0.70;;;8.50;99.90;;;;;;4880033;29;37636;-80
2023/03/05 11:29:31;;;;;;;0.70;0.50;;;8.40;99.90;;;;;;4898831;29;37793;-81
2023/03/05 11:32:19;;;;;;;3.00;0.73;;;8.30;99.90;;;;;;4902355;29;38270;-81
2023/03/05 11:34:46;;;;;;;3.83;0.90;;;8.40;99.90;;;;;;4900911;29;46443;-80
2023/03/05 11:37:25;;;;;;;1.20;0.43;;;8.50;99.90;;;;;;4895993;29;40356;-81
2023/03/05 11:40:21;;;;;;;2.87;0.47;;;8.60;99.90;;;;;;4902935;29;37641;-81
2023/03/05 11:42:54;;;;;;;3.20;0.83;;;8.60;99.90;;;;;;4888908;29;48821;-80
2023/03/05 11:45:22;;;;;;;3.27;0.73;;;8.50;99.90;;;;;;4872814;29;36698;-81
2023/03/05 11:47:52;;;;;;;2.77;0.67;;;8.70;99.90;;;;;;4882601;29;37402;-81
2023/03/05 11:50:22;;;;;;;1.97;0.40;;;8.80;99.90;;;;;;4880431;29;38764;-81
2023/03/05 11:52:52;;;;;;;3.27;0.60;;;9.00;99.90;;;;;;4888266;29;38240;-81
2023/03/05 11:55:25;;;;;;;3.40;0.40;;;8.90;99.90;;;;;;4875717;29;38014;-81
2023/03/05 11:58:00;;;;;;;3.92;0.50;;;9.10;99.90;;;;;;4901806;29;39492;-80
2023/03/05 12:00:30;;;;;;;1.90;0.43;;;9.10;99.90;;;;;;4890194;29;38594;-80
2023/03/05 12:03:01;;;;;;;1.90;0.57;;;9.00;99.90;;;;;;4904933;29;38766;-80
2023/03/05 12:05:28;;;;;;;1.30;0.43;;;8.90;99.90;;;;;;4901612;29;35868;-79
2023/03/05 12:08:00;;;;;;;4.50;0.50;;;8.90;99.90;;;;;;4886463;29;39396;-79
2023/03/05 12:10:26;;;;;;;3.03;0.40;;;8.90;99.90;;;;;;4880988;29;39204;-79
2023/03/05 12:13:21;;;;;;;2.93;0.93;;;8.70;99.90;;;;;;4879922;29;37121;-79
2023/03/05 12:15:48;;;;;;;3.30;0.47;;;8.70;99.90;;;;;;4884057;29;47233;-79
2023/03/05 12:18:26;;;;;;;1.47;0.63;;;8.60;99.90;;;;;;4902404;29;39138;-80
2023/03/05 12:21:18;;;;;;;3.47;0.70;;;8.50;99.90;;;;;;4887249;29;38460;-79
2023/03/05 12:24:00;;;;;;;2.65;0.50;;;8.40;99.90;;;;;;4894452;29;47365;-79
2023/03/05 12:26:58;;;;;;;1.53;0.20;;;8.50;99.90;;;;;;4893799;29;39091;-79
2023/03/05 12:29:32;;;;;;;2.13;0.43;;;8.50;99.90;;;;;;4883131;29;37846;-79
2023/03/05 12:32:03;;;;;;;3.63;0.60;;;8.40;99.90;;;;;;4893620;29;38722;-79
2023/03/05 12:34:47;;;;;;;3.70;0.87;;;8.30;99.90;;;;;;4893335;29;47223;-79
2023/03/05 12:37:19;;;;;;;2.30;0.73;;;8.20;99.90;;;;;;4879628;29;37071;-79
2023/03/05 12:39:51;;;;;;;2.38;0.50;;;8.20;99.90;;;;;;4880746;29;38742;-80
2023/03/05 12:42:30;;;;;;;3.28;0.50;;;8.20;99.90;;;;;;4886062;29;38978;-79
2023/03/05 12:45:08;;;;;;;2.77;0.60;;;8.30;99.90;;;;;;4882918;29;36670;-80
2023/03/05 12:47:44;;;;;;;1.93;0.90;;;8.30;99.90;;;;;;4893810;29;47042;-79
2023/03/05 12:50:28;;;;;;;2.43;0.40;;;8.30;99.90;;;;;;4874506;29;40671;-79
2023/03/05 12:53:12;;;;;;;1.47;0.60;;;8.30;99.90;;;;;;4879753;29;39274;-80
2023/03/05 12:55:44;;;;;;;2.80;1.20;;;8.30;99.90;;;;;;4876161;29;48345;-80
2023/03/05 12:58:25;;;;;;;1.23;0.43;;;8.30;99.90;;;;;;4881375;29;37219;-79
2023/03/05 13:01:03;;;;;;;0.87;0.20;;;8.40;99.90;;;;;;4886327;29;40424;-80
2023/03/05 13:03:51;;;;;;;1.50;0.50;;;8.30;99.90;;;;;;4887236;29;46869;-80
2023/03/05 13:06:23;;;;;;;2.03;0.43;;;8.10;99.90;;;;;;4873120;29;38117;-80
2023/03/05 13:09:22;;;;;;;0.40;0.30;;;8.20;99.90;;;;;;4882117;29;37446;-79
2023/03/05 13:11:51;;;;;;;4.90;0.50;;;8.30;99.90;;;;;;4868410;29;47139;-80
2023/03/05 13:14:45;;;;;;;0.80;0.50;;;8.40;99.90;;;;;;4880762;29;37378;-79
2023/03/05 13:17:27;;;;;;;1.17;0.50;;;8.30;99.90;;;;;;4887522;29;39838;-79
2023/03/05 13:19:54;;;;;;;2.83;0.65;;;8.20;99.90;;;;;;4879468;29;38159;-80